sensor_id;sensor_type;location;lat;lon;timestamp;P1;durP1;ratioP1;P2;durP2;ratioP2
43154;SDS011;34212;51.018;13.586;2023-11-19T00:01:13;4.18;;;3.33;;
43154;SDS011;34212;51.018;13.586;2023-11-19T00:06:15;5.05;;;3.03;;
43154;SDS011;34212;51.018;13.586;2023-11-19T00:11:18;3.35;;;2.70;;
43154;SDS011;34212;51.018;13.586;2023-11-19T00:16:19;4.00;;;3.30;;
43154;SDS011;34212;51.018;13.586;2023-11-19T00:36:07;5.57;;;4.28;;
43154;SDS011;34212;51.018;13.586;2023-11-19T00:41:09;6.33;;;4.17;;
43154;SDS011;34212;51.018;13.586;2023-11-19T00:46:11;6.25;;;4.60;;
43154;SDS011;34212;51.018;13.586;2023-11-19T00:51:14;7.50;;;5.50;;
43154;SDS011;34212;51.018;13.586;2023-11-19T00:56:16;6.03;;;4.68;;
43154;SDS011;34212;51.018;13.586;2023-11-19T01:01:18;5.77;;;4.90;;
43154;SDS011;34212;51.018;13.586;2023-11-19T01:06:30;6.35;;;5.00;;
43154;SDS011;34212;51.018;13.586;2023-11-19T01:11:32;6.00;;;4.75;;
43154;SDS011;34212;51.018;13.586;2023-11-19T01:16:33;4.38;;;3.70;;
43154;SDS011;34212;51.018;13.586;2023-11-19T01:21:35;4.32;;;2.95;;
43154;SDS011;34212;51.018;13.586;2023-11-19T01:26:36;3.33;;;2.90;;
43154;SDS011;34212;51.018;13.586;2023-11-19T01:31:38;4.13;;;3.13;;
43154;SDS011;34212;51.018;13.586;2023-11-19T01:36:39;3.70;;;2.85;;
43154;SDS011;34212;51.018;13.586;2023-11-19T01:41:41;3.85;;;2.83;;
43154;SDS011;34212;51.018;13.586;2023-11-19T01:46:43;2.60;;;2.20;;
43154;SDS011;34212;51.018;13.586;2023-11-19T01:51:48;2.50;;;2.20;;
43154;SDS011;34212;51.018;13.586;2023-11-19T01:56:50;3.30;;;2.35;;
43154;SDS011;34212;51.018;13.586;2023-11-19T02:01:55;2.78;;;2.25;;
43154;SDS011;34212;51.018;13.586;2023-11-19T02:07:02;3.00;;;2.53;;
43154;SDS011;34212;51.018;13.586;2023-11-19T02:12:03;2.95;;;2.45;;
43154;SDS011;34212;51.018;13.586;2023-11-19T02:17:06;3.75;;;2.35;;
43154;SDS011;34212;51.018;13.586;2023-11-19T02:22:07;4.13;;;2.63;;
43154;SDS011;34212;51.018;13.586;2023-11-19T02:27:10;2.95;;;2.60;;
43154;SDS011;34212;51.018;13.586;2023-11-19T02:32:20;3.40;;;2.65;;
43154;SDS011;34212;51.018;13.586;2023-11-19T02:37:22;2.95;;;2.42;;
43154;SDS011;34212;51.018;13.586;2023-11-19T02:42:24;4.07;;;2.50;;
43154;SDS011;34212;51.018;13.586;2023-11-19T02:47:25;3.88;;;2.30;;
43154;SDS011;34212;51.018;13.586;2023-11-19T02:52:27;2.92;;;2.42;;
43154;SDS011;34212;51.018;13.586;2023-11-19T02:57:32;2.63;;;2.30;;
43154;SDS011;34212;51.018;13.586;2023-11-19T03:02:35;2.30;;;2.10;;
43154;SDS011;34212;51.018;13.586;2023-11-19T03:07:45;2.65;;;2.13;;
43154;SDS011;34212;51.018;13.586;2023-11-19T03:12:47;2.63;;;2.00;;
43154;SDS011;34212;51.018;13.586;2023-11-19T03:17:48;2.13;;;1.52;;
43154;SDS011;34212;51.018;13.586;2023-11-19T03:22:50;2.72;;;2.10;;
43154;SDS011;34212;51.018;13.586;2023-11-19T03:32:55;2.10;;;1.52;;
43154;SDS011;34212;51.018;13.586;2023-11-19T03:37:57;2.03;;;1.50;;
43154;SDS011;34212;51.018;13.586;2023-11-19T03:42:59;1.90;;;1.50;;
43154;SDS011;34212;51.018;13.586;2023-11-19T03:48:00;1.52;;;1.42;;
43154;SDS011;34212;51.018;13.586;2023-11-19T03:53:02;2.33;;;1.48;;
43154;SDS011;34212;51.018;13.586;2023-11-19T03:58:04;2.38;;;1.33;;
43154;SDS011;34212;51.018;13.586;2023-11-19T04:03:05;5.72;;;1.60;;
43154;SDS011;34212;51.018;13.586;2023-11-19T04:08:07;1.30;;;1.20;;
43154;SDS011;34212;51.018;13.586;2023-11-19T04:13:09;2.03;;;1.65;;
43154;SDS011;34212;51.018;13.586;2023-11-19T04:18:11;1.40;;;1.13;;
43154;SDS011;34212;51.018;13.586;2023-11-19T04:23:12;1.40;;;1.20;;
43154;SDS011;34212;51.018;13.586;2023-11-19T04:28:14;1.50;;;1.35;;
43154;SDS011;34212;51.018;13.586;2023-11-19T04:33:17;1.45;;;1.20;;
43154;SDS011;34212;51.018;13.586;2023-11-19T04:38:18;2.45;;;1.50;;
43154;SDS011;34212;51.018;13.586;2023-11-19T04:43:20;1.40;;;1.30;;
43154;SDS011;34212;51.018;13.586;2023-11-19T04:48:22;2.78;;;1.20;;
43154;SDS011;34212;51.018;13.586;2023-11-19T04:53:23;2.75;;;1.35;;
43154;SDS011;34212;51.018;13.586;2023-11-19T04:58:25;1.52;;;1.30;;
43154;SDS011;34212;51.018;13.586;2023-11-19T05:03:27;1.33;;;1.00;;
43154;SDS011;34212;51.018;13.586;2023-11-19T05:08:28;1.40;;;1.10;;
43154;SDS011;34212;51.018;13.586;2023-11-19T05:13:30;1.65;;;1.20;;
43154;SDS011;34212;51.018;13.586;2023-11-19T05:18:32;1.40;;;1.20;;
43154;SDS011;34212;51.018;13.586;2023-11-19T05:23:33;1.40;;;1.23;;
43154;SDS011;34212;51.018;13.586;2023-11-19T05:28:37;1.50;;;1.07;;
43154;SDS011;34212;51.018;13.586;2023-11-19T05:33:40;1.77;;;1.15;;
43154;SDS011;34212;51.018;13.586;2023-11-19T05:38:42;1.70;;;1.10;;
43154;SDS011;34212;51.018;13.586;2023-11-19T05:43:44;1.88;;;1.25;;
43154;SDS011;34212;51.018;13.586;2023-11-19T06:29:12;0.60;;;0.60;;
43154;SDS011;34212;51.018;13.586;2023-11-19T06:34:19;1.10;;;0.80;;
43154;SDS011;34212;51.018;13.586;2023-11-19T06:39:21;0.70;;;0.70;;
43154;SDS011;34212;51.018;13.586;2023-11-19T06:44:22;0.70;;;0.70;;
43154;SDS011;34212;51.018;13.586;2023-11-19T06:49:24;0.70;;;0.70;;
43154;SDS011;34212;51.018;13.586;2023-11-19T06:54:26;1.13;;;0.60;;
43154;SDS011;34212;51.018;13.586;2023-11-19T06:59:27;0.90;;;0.80;;
43154;SDS011;34212;51.018;13.586;2023-11-19T07:09:32;1.42;;;0.77;;
43154;SDS011;34212;51.018;13.586;2023-11-19T07:14:35;1.75;;;0.73;;
43154;SDS011;34212;51.018;13.586;2023-11-19T07:19:36;0.82;;;0.80;;
43154;SDS011;34212;51.018;13.586;2023-11-19T07:24:39;1.15;;;0.70;;
43154;SDS011;34212;51.018;13.586;2023-11-19T07:29:43;2.05;;;0.60;;
43154;SDS011;34212;51.018;13.586;2023-11-19T07:34:45;1.95;;;0.80;;
43154;SDS011;34212;51.018;13.586;2023-11-19T07:39:46;1.48;;;0.70;;
43154;SDS011;34212;51.018;13.586;2023-11-19T07:44:48;0.60;;;0.60;;
43154;SDS011;34212;51.018;13.586;2023-11-19T07:49:50;1.65;;;0.88;;
43154;SDS011;34212;51.018;13.586;2023-11-19T07:54:52;0.90;;;0.70;;
43154;SDS011;34212;51.018;13.586;2023-11-19T07:59:53;0.60;;;0.60;;
43154;SDS011;34212;51.018;13.586;2023-11-19T08:04:55;2.25;;;0.90;;
43154;SDS011;34212;51.018;13.586;2023-11-19T08:09:57;1.25;;;0.70;;
43154;SDS011;34212;51.018;13.586;2023-11-19T09:03:32;1.13;;;1.00;;
43154;SDS011;34212;51.018;13.586;2023-11-19T09:44:06;5.15;;;1.67;;
43154;SDS011;34212;51.018;13.586;2023-11-19T09:49:09;5.40;;;1.70;;
43154;SDS011;34212;51.018;13.586;2023-11-19T09:54:11;2.03;;;1.10;;
43154;SDS011;34212;51.018;13.586;2023-11-19T09:59:14;2.75;;;1.13;;
43154;SDS011;34212;51.018;13.586;2023-11-19T10:04:15;5.05;;;1.88;;
43154;SDS011;34212;51.018;13.586;2023-11-19T10:09:18;1.95;;;1.33;;
43154;SDS011;34212;51.018;13.586;2023-11-19T10:14:21;3.58;;;1.60;;
43154;SDS011;34212;51.018;13.586;2023-11-19T10:19:24;3.85;;;1.95;;
43154;SDS011;34212;51.018;13.586;2023-11-19T10:24:32;4.05;;;1.60;;
43154;SDS011;34212;51.018;13.586;2023-11-19T10:29:36;4.22;;;1.45;;
43154;SDS011;34212;51.018;13.586;2023-11-19T10:34:39;5.00;;;1.52;;
43154;SDS011;34212;51.018;13.586;2023-11-19T10:39:53;3.00;;;1.30;;
43154;SDS011;34212;51.018;13.586;2023-11-19T10:44:55;5.38;;;1.40;;
43154;SDS011;34212;51.018;13.586;2023-11-19T10:49:57;1.95;;;1.08;;
43154;SDS011;34212;51.018;13.586;2023-11-19T10:54:59;2.88;;;1.00;;
43154;SDS011;34212;51.018;13.586;2023-11-19T11:00:02;1.75;;;0.90;;
43154;SDS011;34212;51.018;13.586;2023-11-19T11:05:12;2.60;;;1.17;;
43154;SDS011;34212;51.018;13.586;2023-11-19T11:10:16;2.90;;;1.10;;
43154;SDS011;34212;51.018;13.586;2023-11-19T11:15:19;3.65;;;1.00;;
43154;SDS011;34212;51.018;13.586;2023-11-19T11:20:22;3.10;;;1.20;;
43154;SDS011;34212;51.018;13.586;2023-11-19T11:25:28;3.08;;;1.00;;
43154;SDS011;34212;51.018;13.586;2023-11-19T11:36:13;7.22;;;1.23;;
43154;SDS011;34212;51.018;13.586;2023-11-19T11:41:24;5.07;;;1.40;;
43154;SDS011;34212;51.018;13.586;2023-11-19T12:02:21;5.18;;;1.55;;
43154;SDS011;34212;51.018;13.586;2023-11-19T12:07:24;3.63;;;2.22;;
43154;SDS011;34212;51.018;13.586;2023-11-19T12:12:27;6.45;;;1.80;;
43154;SDS011;34212;51.018;13.586;2023-11-19T12:22:37;6.50;;;1.40;;
43154;SDS011;34212;51.018;13.586;2023-11-19T12:27:40;7.63;;;2.28;;
43154;SDS011;34212;51.018;13.586;2023-11-19T12:32:44;6.18;;;2.30;;
43154;SDS011;34212;51.018;13.586;2023-11-19T12:37:47;6.60;;;1.80;;
43154;SDS011;34212;51.018;13.586;2023-11-19T12:42:53;8.93;;;2.30;;
43154;SDS011;34212;51.018;13.586;2023-11-19T12:48:05;5.35;;;2.10;;
43154;SDS011;34212;51.018;13.586;2023-11-19T12:53:08;8.63;;;2.20;;
43154;SDS011;34212;51.018;13.586;2023-11-19T12:58:09;11.60;;;2.22;;
43154;SDS011;34212;51.018;13.586;2023-11-19T13:03:11;8.68;;;2.40;;
43154;SDS011;34212;51.018;13.586;2023-11-19T13:08:13;5.80;;;2.45;;
43154;SDS011;34212;51.018;13.586;2023-11-19T13:13:14;8.65;;;2.38;;
43154;SDS011;34212;51.018;13.586;2023-11-19T13:18:16;9.18;;;2.50;;
43154;SDS011;34212;51.018;13.586;2023-11-19T13:23:18;10.20;;;3.20;;
43154;SDS011;34212;51.018;13.586;2023-11-19T13:28:21;9.10;;;2.55;;
43154;SDS011;34212;51.018;13.586;2023-11-19T13:33:23;7.57;;;1.80;;
43154;SDS011;34212;51.018;13.586;2023-11-19T13:38:25;9.60;;;1.83;;
43154;SDS011;34212;51.018;13.586;2023-11-19T13:43:27;8.20;;;2.23;;
43154;SDS011;34212;51.018;13.586;2023-11-19T13:48:31;10.73;;;2.38;;
43154;SDS011;34212;51.018;13.586;2023-11-19T13:53:33;11.47;;;3.00;;
43154;SDS011;34212;51.018;13.586;2023-11-19T13:58:38;7.28;;;2.60;;
43154;SDS011;34212;51.018;13.586;2023-11-19T14:03:41;7.38;;;2.25;;
43154;SDS011;34212;51.018;13.586;2023-11-19T14:08:43;12.77;;;3.13;;
43154;SDS011;34212;51.018;13.586;2023-11-19T14:13:45;8.48;;;2.15;;
43154;SDS011;34212;51.018;13.586;2023-11-19T14:23:50;8.93;;;2.35;;
43154;SDS011;34212;51.018;13.586;2023-11-19T14:28:51;9.20;;;2.03;;
43154;SDS011;34212;51.018;13.586;2023-11-19T14:33:56;5.95;;;2.38;;
43154;SDS011;34212;51.018;13.586;2023-11-19T14:38:58;11.93;;;2.30;;
43154;SDS011;34212;51.018;13.586;2023-11-19T14:44:00;10.07;;;2.50;;
43154;SDS011;34212;51.018;13.586;2023-11-19T14:49:02;10.70;;;2.45;;
43154;SDS011;34212;51.018;13.586;2023-11-19T14:54:05;14.93;;;3.80;;
43154;SDS011;34212;51.018;13.586;2023-11-19T14:59:07;16.27;;;2.80;;
43154;SDS011;34212;51.018;13.586;2023-11-19T15:04:08;11.57;;;2.17;;
43154;SDS011;34212;51.018;13.586;2023-11-19T15:09:10;13.77;;;2.22;;
43154;SDS011;34212;51.018;13.586;2023-11-19T15:14:17;6.40;;;2.47;;
43154;SDS011;34212;51.018;13.586;2023-11-19T15:19:20;8.85;;;2.08;;
43154;SDS011;34212;51.018;13.586;2023-11-19T15:24:22;5.90;;;1.65;;
43154;SDS011;34212;51.018;13.586;2023-11-19T15:29:23;9.32;;;3.05;;
43154;SDS011;34212;51.018;13.586;2023-11-19T15:34:25;13.02;;;2.20;;
43154;SDS011;34212;51.018;13.586;2023-11-19T15:39:26;9.60;;;3.22;;
43154;SDS011;34212;51.018;13.586;2023-11-19T15:44:28;8.20;;;3.50;;
43154;SDS011;34212;51.018;13.586;2023-11-19T15:49:30;7.53;;;2.10;;
43154;SDS011;34212;51.018;13.586;2023-11-19T15:54:32;10.13;;;2.88;;
43154;SDS011;34212;51.018;13.586;2023-11-19T15:59:33;8.93;;;2.15;;
43154;SDS011;34212;51.018;13.586;2023-11-19T16:04:35;9.65;;;2.78;;
43154;SDS011;34212;51.018;13.586;2023-11-19T16:09:37;9.27;;;1.97;;
43154;SDS011;34212;51.018;13.586;2023-11-19T16:14:39;10.57;;;2.30;;
43154;SDS011;34212;51.018;13.586;2023-11-19T16:19:40;8.60;;;2.20;;
43154;SDS011;34212;51.018;13.586;2023-11-19T16:24:43;8.35;;;2.05;;
43154;SDS011;34212;51.018;13.586;2023-11-19T16:29:45;9.10;;;2.10;;
43154;SDS011;34212;51.018;13.586;2023-11-19T16:34:47;9.07;;;2.73;;
43154;SDS011;34212;51.018;13.586;2023-11-19T16:39:49;11.93;;;2.07;;
43154;SDS011;34212;51.018;13.586;2023-11-19T16:44:50;8.38;;;2.13;;
43154;SDS011;34212;51.018;13.586;2023-11-19T16:49:53;4.93;;;1.80;;
43154;SDS011;34212;51.018;13.586;2023-11-19T16:54:55;6.90;;;2.13;;
43154;SDS011;34212;51.018;13.586;2023-11-19T16:59:57;11.60;;;2.80;;
43154;SDS011;34212;51.018;13.586;2023-11-19T17:04:58;5.43;;;2.20;;
43154;SDS011;34212;51.018;13.586;2023-11-19T17:10:00;6.05;;;2.10;;
43154;SDS011;34212;51.018;13.586;2023-11-19T17:15:03;7.55;;;2.33;;
43154;SDS011;34212;51.018;13.586;2023-11-19T17:20:06;8.02;;;1.90;;
43154;SDS011;34212;51.018;13.586;2023-11-19T17:25:10;8.73;;;2.22;;
43154;SDS011;34212;51.018;13.586;2023-11-19T17:30:12;8.57;;;2.80;;
43154;SDS011;34212;51.018;13.586;2023-11-19T17:35:14;11.07;;;2.05;;
43154;SDS011;34212;51.018;13.586;2023-11-19T17:40:15;12.75;;;2.30;;
43154;SDS011;34212;51.018;13.586;2023-11-19T17:45:18;9.82;;;3.00;;
43154;SDS011;34212;51.018;13.586;2023-11-19T17:50:19;8.02;;;2.20;;
43154;SDS011;34212;51.018;13.586;2023-11-19T17:55:24;10.00;;;2.58;;
43154;SDS011;34212;51.018;13.586;2023-11-19T18:00:26;8.05;;;2.53;;
43154;SDS011;34212;51.018;13.586;2023-11-19T18:05:29;8.50;;;1.92;;
43154;SDS011;34212;51.018;13.586;2023-11-19T18:10:30;10.35;;;2.38;;
43154;SDS011;34212;51.018;13.586;2023-11-19T18:15:32;10.40;;;2.20;;
43154;SDS011;34212;51.018;13.586;2023-11-19T18:20:38;10.77;;;2.40;;
43154;SDS011;34212;51.018;13.586;2023-11-19T18:25:39;13.48;;;3.53;;
43154;SDS011;34212;51.018;13.586;2023-11-19T18:30:41;6.95;;;2.58;;
43154;SDS011;34212;51.018;13.586;2023-11-19T18:35:42;9.95;;;2.03;;
43154;SDS011;34212;51.018;13.586;2023-11-19T18:40:44;7.20;;;1.90;;
43154;SDS011;34212;51.018;13.586;2023-11-19T18:45:47;7.68;;;1.75;;
43154;SDS011;34212;51.018;13.586;2023-11-19T18:50:49;8.35;;;2.10;;
43154;SDS011;34212;51.018;13.586;2023-11-19T18:55:53;12.52;;;3.00;;
43154;SDS011;34212;51.018;13.586;2023-11-19T19:00:55;8.02;;;1.88;;
43154;SDS011;34212;51.018;13.586;2023-11-19T19:05:57;10.25;;;2.35;;
43154;SDS011;34212;51.018;13.586;2023-11-19T19:10:59;6.45;;;1.88;;
43154;SDS011;34212;51.018;13.586;2023-11-19T19:16:05;6.47;;;1.73;;
43154;SDS011;34212;51.018;13.586;2023-11-19T19:21:08;10.77;;;2.33;;
43154;SDS011;34212;51.018;13.586;2023-11-19T19:26:11;12.68;;;2.63;;
43154;SDS011;34212;51.018;13.586;2023-11-19T19:31:12;5.22;;;2.00;;
43154;SDS011;34212;51.018;13.586;2023-11-19T19:36:19;10.65;;;2.80;;
43154;SDS011;34212;51.018;13.586;2023-11-19T19:41:22;9.30;;;2.50;;
43154;SDS011;34212;51.018;13.586;2023-11-19T19:46:25;8.25;;;1.98;;
43154;SDS011;34212;51.018;13.586;2023-11-19T19:51:26;9.20;;;2.03;;
43154;SDS011;34212;51.018;13.586;2023-11-19T19:56:28;6.90;;;1.92;;
43154;SDS011;34212;51.018;13.586;2023-11-19T20:01:29;7.93;;;2.10;;
43154;SDS011;34212;51.018;13.586;2023-11-19T20:06:37;6.28;;;1.65;;
43154;SDS011;34212;51.018;13.586;2023-11-19T20:11:40;7.38;;;2.33;;
43154;SDS011;34212;51.018;13.586;2023-11-19T20:16:44;6.13;;;2.33;;
43154;SDS011;34212;51.018;13.586;2023-11-19T20:21:46;8.27;;;1.95;;
43154;SDS011;34212;51.018;13.586;2023-11-19T20:26:47;8.68;;;2.20;;
43154;SDS011;34212;51.018;13.586;2023-11-19T20:31:54;6.82;;;2.10;;
43154;SDS011;34212;51.018;13.586;2023-11-19T20:36:55;6.38;;;1.92;;
43154;SDS011;34212;51.018;13.586;2023-11-19T20:41:57;9.45;;;1.83;;
43154;SDS011;34212;51.018;13.586;2023-11-19T20:46:58;6.65;;;1.85;;
43154;SDS011;34212;51.018;13.586;2023-11-19T20:52:05;10.30;;;2.38;;
43154;SDS011;34212;51.018;13.586;2023-11-19T20:57:07;11.07;;;1.55;;
43154;SDS011;34212;51.018;13.586;2023-11-19T21:02:08;10.00;;;2.00;;
43154;SDS011;34212;51.018;13.586;2023-11-19T21:07:10;8.48;;;2.35;;
43154;SDS011;34212;51.018;13.586;2023-11-19T21:12:11;9.60;;;1.75;;
43154;SDS011;34212;51.018;13.586;2023-11-19T21:17:13;9.85;;;2.45;;
43154;SDS011;34212;51.018;13.586;2023-11-19T21:22:14;6.28;;;1.67;;
43154;SDS011;34212;51.018;13.586;2023-11-19T21:27:16;8.20;;;1.92;;
43154;SDS011;34212;51.018;13.586;2023-11-19T21:32:17;11.25;;;2.33;;
43154;SDS011;34212;51.018;13.586;2023-11-19T21:37:19;5.87;;;1.87;;
43154;SDS011;34212;51.018;13.586;2023-11-19T21:42:21;8.73;;;1.80;;
43154;SDS011;34212;51.018;13.586;2023-11-19T21:47:22;8.68;;;1.95;;
43154;SDS011;34212;51.018;13.586;2023-11-19T21:52:24;7.40;;;1.70;;
43154;SDS011;34212;51.018;13.586;2023-11-19T21:57:25;7.25;;;2.28;;
43154;SDS011;34212;51.018;13.586;2023-11-19T22:02:27;7.13;;;1.75;;
43154;SDS011;34212;51.018;13.586;2023-11-19T22:07:29;3.83;;;2.03;;
43154;SDS011;34212;51.018;13.586;2023-11-19T22:12:30;7.53;;;1.70;;
43154;SDS011;34212;51.018;13.586;2023-11-19T22:17:32;5.15;;;2.00;;
43154;SDS011;34212;51.018;13.586;2023-11-19T22:22:34;3.53;;;1.50;;
43154;SDS011;34212;51.018;13.586;2023-11-19T22:27:36;8.25;;;2.10;;
43154;SDS011;34212;51.018;13.586;2023-11-19T22:32:38;12.48;;;1.60;;
43154;SDS011;34212;51.018;13.586;2023-11-19T22:37:40;11.18;;;2.25;;
43154;SDS011;34212;51.018;13.586;2023-11-19T22:42:42;7.63;;;2.63;;
43154;SDS011;34212;51.018;13.586;2023-11-19T22:47:43;11.38;;;2.55;;
43154;SDS011;34212;51.018;13.586;2023-11-19T22:52:45;7.73;;;1.70;;
43154;SDS011;34212;51.018;13.586;2023-11-19T22:57:47;8.90;;;1.80;;
43154;SDS011;34212;51.018;13.586;2023-11-19T23:02:51;11.63;;;2.25;;
43154;SDS011;34212;51.018;13.586;2023-11-19T23:07:53;12.35;;;2.67;;
43154;SDS011;34212;51.018;13.586;2023-11-19T23:12:55;5.40;;;1.55;;
43154;SDS011;34212;51.018;13.586;2023-11-19T23:18:01;9.95;;;2.00;;
43154;SDS011;34212;51.018;13.586;2023-11-19T23:23:03;13.55;;;2.40;;
43154;SDS011;34212;51.018;13.586;2023-11-19T23:28:05;13.65;;;2.20;;
43154;SDS011;34212;51.018;13.586;2023-11-19T23:33:07;10.60;;;2.47;;
43154;SDS011;34212;51.018;13.586;2023-11-19T23:38:09;15.20;;;2.00;;
43154;SDS011;34212;51.018;13.586;2023-11-19T23:43:12;6.90;;;2.00;;
43154;SDS011;34212;51.018;13.586;2023-11-19T23:48:14;12.07;;;2.40;;
43154;SDS011;34212;51.018;13.586;2023-11-19T23:53:15;7.78;;;2.25;;
43154;SDS011;34212;51.018;13.586;2023-11-19T23:58:17;8.85;;;1.85;;
